Time;durP1;ratioP1;P1;durP2;ratioP2;P2;SDS_P1;SDS_P2;PMS_P1;PMS_P2;Temp;Humidity;BMP_temperature;BMP_pressure;BME280_temperature;BME280_humidity;BME280_pressure;Samples;Min_cycle;Max_cycle;Signal;HPM_P1;HPM_P2
2023/03/12 00:01:15;;;;;;;11.20;4.82;;;;;;;-0.26;100.00;101053.41;5134755;27;20411;-49
2023/03/12 00:03:44;;;;;;;11.25;5.05;;;;;;;-0.27;100.00;101057.75;5133978;27;20109;-48
2023/03/12 00:06:12;;;;;;;10.20;4.40;;;;;;;-0.26;100.00;101051.72;5113954;28;20051;-50
2023/03/12 00:08:42;;;;;;;10.98;4.75;;;;;;;-0.27;100.00;101049.13;5112968;27;20498;-47
2023/03/12 00:11:15;;;;;;;10.38;5.00;;;;;;;-0.27;100.00;101046.53;5113684;27;20505;-47
2023/03/12 00:13:43;;;;;;;9.52;4.53;;;;;;;-0.28;100.00;101053.44;5123670;27;20037;-50
2023/03/12 00:16:13;;;;;;;10.55;4.68;;;;;;;-0.27;100.00;101044.81;5124354;27;20118;-51
2023/03/12 00:18:42;;;;;;;10.30;4.93;;;;;;;-0.20;100.00;101041.25;5115868;27;20050;-52
2023/03/12 00:21:10;;;;;;;9.80;4.78;;;;;;;-0.21;100.00;101036.94;5128310;27;20051;-47
2023/03/12 00:23:38;;;;;;;8.77;4.72;;;;;;;-0.22;100.00;101032.69;5120468;27;20074;-50
2023/03/12 00:26:10;;;;;;;9.88;5.70;;;;;;;-0.15;100.00;101029.97;5120280;27;20047;-51
2023/03/12 00:28:41;;;;;;;9.02;4.30;;;;;;;-0.08;100.00;101034.16;5120592;27;20046;-53
2023/03/12 00:31:16;;;;;;;7.97;4.60;;;;;;;-0.10;100.00;101029.00;5126990;27;20047;-60
2023/03/12 00:33:44;;;;;;;9.95;4.55;;;;;;;-0.10;100.00;101020.41;5128398;27;20055;-61
2023/03/12 00:36:12;;;;;;;10.90;4.50;;;;;;;-0.06;100.00;101022.91;5129677;27;20035;-60
2023/03/12 00:38:40;;;;;;;8.32;4.28;;;;;;;-0.02;100.00;101027.13;5122274;27;20046;-60
2023/03/12 00:41:10;;;;;;;7.60;3.85;;;;;;;-0.05;100.00;101018.59;5126731;27;20100;-60
2023/03/12 00:43:38;;;;;;;10.82;4.30;;;;;;;-0.02;100.00;101013.34;5129214;27;20035;-61
2023/03/12 00:46:06;;;;;;;9.50;3.95;;;;;;;0.13;100.00;101013.06;5125419;27;20061;-61
2023/03/12 00:48:34;;;;;;;10.88;4.20;;;;;;;0.06;100.00;101010.63;5127784;27;20085;-60
2023/03/12 00:51:03;;;;;;;9.40;4.30;;;;;;;0.06;100.00;101003.72;5121304;27;20048;-60
2023/03/12 00:53:31;;;;;;;10.55;4.00;;;;;;;0.02;100.00;101001.22;5124063;27;20088;-61
2023/03/12 00:56:02;;;;;;;11.95;4.13;;;;;;;0.09;100.00;100997.66;5123765;27;20100;-62
2023/03/12 00:58:32;;;;;;;11.00;4.45;;;;;;;0.10;100.00;100995.03;5124674;27;20444;-60
2023/03/12 01:01:00;;;;;;;7.82;4.00;;;;;;;0.09;100.00;100995.91;5127851;27;20062;-61
2023/03/12 01:03:29;;;;;;;8.73;3.85;;;;;;;0.10;100.00;100987.25;5127315;27;20039;-61
2023/03/12 01:05:57;;;;;;;9.95;3.72;;;;;;;0.21;100.00;100981.03;5125014;27;20082;-61
2023/03/12 01:08:25;;;;;;;8.98;4.18;;;;;;;0.15;100.00;100985.44;5123402;27;20052;-62
2023/03/12 01:10:56;;;;;;;9.93;4.30;;;;;;;0.15;100.00;100994.91;5125721;27;20031;-61
2023/03/12 01:13:24;;;;;;;9.85;4.15;;;;;;;0.12;100.00;100993.28;5119338;27;20083;-61
2023/03/12 01:15:54;;;;;;;10.02;3.80;;;;;;;0.12;100.00;100988.09;5121491;27;20048;-61
2023/03/12 01:18:22;;;;;;;9.20;4.18;;;;;;;0.14;100.00;100993.25;5121678;27;20110;-61
2023/03/12 01:20:50;;;;;;;11.20;3.88;;;;;;;0.12;100.00;100992.41;5121224;27;20043;-61
2023/03/12 01:23:18;;;;;;;7.30;3.70;;;;;;;0.14;100.00;100998.41;5124042;27;21010;-62
2023/03/12 01:25:48;;;;;;;7.88;3.70;;;;;;;0.15;100.00;100982.84;5124984;27;20983;-61
2023/03/12 01:28:16;;;;;;;10.82;4.20;;;;;;;0.15;100.00;100980.28;5124745;27;20077;-61
2023/03/12 01:30:45;;;;;;;9.70;3.97;;;;;;;0.23;100.00;100976.66;5124538;27;20385;-61
2023/03/12 01:33:15;;;;;;;8.20;3.95;;;;;;;0.22;100.00;100967.19;5119625;27;20049;-61
2023/03/12 01:35:43;;;;;;;8.68;3.67;;;;;;;0.25;100.00;100965.41;5121013;27;20043;-61
2023/03/12 01:38:17;;;;;;;8.45;3.67;;;;;;;0.22;100.00;100960.31;5124243;27;20035;-62
2023/03/12 01:40:46;;;;;;;8.48;3.92;;;;;;;0.19;100.00;100965.53;5123177;27;20366;-62
2023/03/12 01:43:24;;;;;;;9.70;4.15;;;;;;;0.33;100.00;100953.16;5125744;27;20087;-61
2023/03/12 01:46:04;;;;;;;10.05;3.70;;;;;;;0.33;100.00;100942.81;5125550;27;20464;-61
2023/03/12 01:48:39;;;;;;;10.38;4.05;;;;;;;0.35;100.00;100949.72;5118767;27;20053;-61
2023/03/12 01:51:10;;;;;;;10.13;4.00;;;;;;;0.30;100.00;100942.03;5123882;27;20043;-61
2023/03/12 01:53:40;;;;;;;11.23;3.83;;;;;;;0.39;100.00;100941.84;5127234;27;20063;-61
2023/03/12 01:56:09;;;;;;;11.63;3.63;;;;;;;0.39;100.00;100938.41;5122287;27;20046;-61
2023/03/12 01:58:43;;;;;;;8.85;3.38;;;;;;;0.37;100.00;100948.78;5121576;27;20054;-61
2023/03/12 02:01:11;;;;;;;8.13;3.30;;;;;;;0.33;100.00;100955.75;5120446;27;20363;-61
2023/03/12 02:03:41;;;;;;;7.75;3.38;;;;;;;0.31;100.00;100954.09;5127108;27;20045;-61
2023/03/12 02:06:14;;;;;;;8.02;2.70;;;;;;;0.34;100.00;100951.41;5124041;27;20107;-61
2023/03/12 02:08:46;;;;;;;8.82;3.00;;;;;;;0.31;100.00;100951.50;5127207;27;20088;-61
2023/03/12 02:11:14;;;;;;;6.65;2.67;;;;;;;0.29;100.00;100950.69;5122129;27;20054;-61
2023/03/12 02:13:42;;;;;;;5.63;2.55;;;;;;;0.30;100.00;100942.91;5121603;27;20078;-61
2023/03/12 02:16:10;;;;;;;7.60;3.10;;;;;;;0.34;100.00;100935.91;5117349;27;20490;-61
2023/03/12 02:18:40;;;;;;;6.05;2.50;;;;;;;0.32;100.00;100929.91;5127001;27;20047;-61
2023/03/12 02:21:13;;;;;;;7.97;3.42;;;;;;;0.32;100.00;100929.91;5121289;27;20047;-61
2023/03/12 02:23:49;;;;;;;10.25;3.10;;;;;;;0.32;100.00;100919.56;5124696;27;20049;-61
2023/03/12 02:26:20;;;;;;;6.38;2.80;;;;;;;0.44;100.00;100921.88;5125421;27;20730;-61
2023/03/12 02:28:50;;;;;;;8.88;2.72;;;;;;;0.50;100.00;100907.97;5112304;27;20051;-61
2023/03/12 02:31:21;;;;;;;7.53;2.67;;;;;;;0.44;100.00;100908.94;5118255;27;20074;-61
2023/03/12 02:33:51;;;;;;;6.95;2.83;;;;;;;0.58;100.00;100908.63;5126135;27;20493;-61
2023/03/12 02:36:20;;;;;;;8.90;2.70;;;;;;;0.54;100.00;100907.00;5115694;27;20047;-61
2023/03/12 02:38:52;;;;;;;6.60;2.70;;;;;;;0.62;100.00;100906.84;5121627;27;20096;-61
2023/03/12 02:41:24;;;;;;;7.70;2.55;;;;;;;0.61;100.00;100899.97;5120784;27;20562;-61
2023/03/12 02:44:01;;;;;;;11.35;3.10;;;;;;;0.56;100.00;100896.63;5122529;27;20090;-61
2023/03/12 02:46:33;;;;;;;9.98;2.40;;;;;;;0.60;100.00;100885.31;5126918;27;20085;-61
2023/03/12 02:49:02;;;;;;;8.27;2.72;;;;;;;0.62;100.00;100880.97;5120226;28;20518;-61
2023/03/12 02:51:30;;;;;;;6.93;2.53;;;;;;;0.65;100.00;100875.69;5123295;28;20466;-61
2023/03/12 02:53:58;;;;;;;7.32;2.60;;;;;;;0.72;100.00;100884.19;5125278;28;20085;-61
2023/03/12 02:56:28;;;;;;;8.50;2.75;;;;;;;0.75;100.00;100874.59;5119677;28;20043;-61
2023/03/12 02:58:56;;;;;;;7.28;2.80;;;;;;;0.70;100.00;100863.50;5122950;28;20146;-61
2023/03/12 03:01:25;;;;;;;8.50;3.10;;;;;;;0.71;100.00;100865.22;5125030;28;20070;-61
2023/03/12 03:03:54;;;;;;;8.43;3.00;;;;;;;0.73;100.00;100871.19;5123735;28;20108;-61
2023/03/12 03:06:22;;;;;;;7.57;2.75;;;;;;;0.70;100.00;100865.25;5125382;27;20043;-61
2023/03/12 03:08:50;;;;;;;7.32;3.20;;;;;;;0.81;100.00;100864.09;5114952;28;20044;-61
2023/03/12 03:11:23;;;;;;;6.30;2.85;;;;;;;0.69;100.00;100856.63;5118908;28;20554;-62
2023/03/12 03:13:52;;;;;;;;;;;;;;;0.66;100.00;100854.94;5123138;28;20055;-62
2023/03/12 03:16:21;;;;;;;11.43;3.67;;;;;;;0.67;100.00;100861.84;5122393;28;19923;-61
2023/03/12 03:18:52;;;;;;;11.07;4.13;;;;;;;0.72;100.00;100853.94;5120841;28;20042;-61
2023/03/12 03:21:21;;;;;;;9.60;4.05;;;;;;;0.70;100.00;100850.56;5120452;28;20051;-61
2023/03/12 03:23:50;;;;;;;8.85;4.30;;;;;;;0.65;100.00;100845.47;5124747;27;20521;-61
2023/03/12 03:26:20;;;;;;;10.30;4.55;;;;;;;0.66;100.00;100842.00;5123815;28;20039;-61
2023/03/12 03:28:49;;;;;;;9.05;4.10;;;;;;;0.71;100.00;100836.75;5121955;28;20039;-61
2023/03/12 03:31:18;;;;;;;12.73;4.72;;;;;;;0.64;100.00;100841.22;5121678;28;20099;-61
2023/03/12 03:33:47;;;;;;;10.18;4.03;;;;;;;0.90;100.00;100838.84;5120039;28;20044;-61
2023/03/12 03:36:15;;;;;;;12.15;3.55;;;;;;;0.88;100.00;100832.88;5124439;28;20105;-61
2023/03/12 03:38:48;;;;;;;9.90;4.45;;;;;;;0.86;100.00;100822.56;5121234;28;20043;-61
2023/03/12 03:41:16;;;;;;;10.48;3.90;;;;;;;0.90;100.00;100829.38;5122953;28;20115;-61
2023/03/12 03:43:45;;;;;;;11.20;3.72;;;;;;;1.00;100.00;100835.16;5124332;28;20090;-61
2023/03/12 03:46:16;;;;;;;8.00;3.75;;;;;;;0.97;100.00;100830.06;5121556;27;20086;-61
2023/03/12 03:48:45;;;;;;;7.55;3.70;;;;;;;0.91;100.00;100831.03;5122598;28;20092;-61
2023/03/12 03:51:14;;;;;;;8.90;3.30;;;;;;;0.94;100.00;100833.59;5127877;28;20101;-61
2023/03/12 03:53:44;;;;;;;13.57;3.83;;;;;;;0.88;100.00;100827.69;5118952;27;20043;-62
2023/03/12 03:56:15;;;;;;;7.10;3.80;;;;;;;0.89;100.00;100830.25;5120964;27;20482;-61
2023/03/12 03:58:43;;;;;;;9.68;3.33;;;;;;;0.92;100.00;100826.72;5117662;27;20040;-62
2023/03/12 04:01:13;;;;;;;9.40;3.38;;;;;;;0.91;100.00;100820.69;5120377;27;20177;-61
2023/03/12 04:03:41;;;;;;;9.55;4.28;;;;;;;0.95;100.00;100822.31;5120687;27;20043;-61
2023/03/12 04:06:11;;;;;;;13.32;4.35;;;;;;;0.91;100.00;100822.44;5121145;27;20543;-61
2023/03/12 04:08:39;;;;;;;10.85;4.20;;;;;;;0.96;100.00;100820.59;5128454;27;20036;-61
2023/03/12 04:11:09;;;;;;;11.00;3.70;;;;;;;1.03;100.00;100824.72;5130229;27;20096;-61
2023/03/12 04:13:38;;;;;;;10.52;3.55;;;;;;;0.97;100.00;100823.13;5130801;27;20058;-61
2023/03/12 04:16:07;;;;;;;9.90;3.67;;;;;;;0.96;100.00;100807.63;5124992;27;20036;-62
2023/03/12 04:18:36;;;;;;;10.25;3.80;;;;;;;0.97;100.00;100801.56;5121887;27;20042;-61
2023/03/12 04:21:05;;;;;;;9.20;3.50;;;;;;;0.91;100.00;100804.31;5122312;27;20031;-61
2023/03/12 04:23:36;;;;;;;12.50;3.70;;;;;;;0.97;100.00;100804.16;5125370;27;20051;-62
2023/03/12 04:26:04;;;;;;;9.68;3.47;;;;;;;0.99;100.00;100777.31;5124731;27;20043;-61
2023/03/12 04:28:33;;;;;;;8.57;3.53;;;;;;;1.05;100.00;100775.44;5124183;27;20376;-61
2023/03/12 04:31:03;;;;;;;9.13;3.30;;;;;;;1.13;100.00;100778.69;5124890;27;20055;-61
2023/03/12 04:33:33;;;;;;;9.98;3.78;;;;;;;1.08;100.00;100791.78;5123340;27;20067;-61
2023/03/12 04:36:01;;;;;;;9.27;3.67;;;;;;;1.04;100.00;100792.75;5127798;27;20069;-61
2023/03/12 04:38:30;;;;;;;10.88;3.10;;;;;;;1.05;100.00;100786.69;5131800;27;20039;-61
2023/03/12 04:41:02;;;;;;;10.95;3.55;;;;;;;1.21;100.00;100773.31;5125078;27;20482;-61
2023/03/12 04:43:31;;;;;;;8.20;3.20;;;;;;;1.14;100.00;100773.47;5123977;27;20044;-61
2023/03/12 04:46:00;;;;;;;10.35;3.50;;;;;;;1.19;100.00;100773.34;5123701;27;20536;-61
2023/03/12 04:48:28;;;;;;;8.63;3.65;;;;;;;1.23;100.00;100774.97;5118361;27;20040;-61
2023/03/12 04:50:58;;;;;;;8.23;3.13;;;;;;;1.30;100.00;100760.09;5120641;27;20058;-61
2023/03/12 04:53:27;;;;;;;8.68;3.78;;;;;;;1.17;100.00;100768.22;5125789;27;20055;-61
2023/03/12 04:55:55;;;;;;;8.70;3.20;;;;;;;1.16;100.00;100770.84;5130733;27;20482;-61
2023/03/12 04:58:28;;;;;;;8.40;3.30;;;;;;;1.17;100.00;100763.03;5120959;27;20074;-61
2023/03/12 05:00:56;;;;;;;9.63;3.28;;;;;;;1.18;100.00;100769.06;5125950;27;20043;-61
2023/03/12 05:03:24;;;;;;;8.45;3.30;;;;;;;1.17;100.00;100769.94;5120584;27;20114;-61
2023/03/12 05:05:52;;;;;;;11.75;3.40;;;;;;;1.21;100.00;100765.53;5124091;27;20047;-61
2023/03/12 05:08:20;;;;;;;7.13;2.63;;;;;;;1.25;100.00;100761.97;5121270;27;20096;-61
2023/03/12 05:10:48;;;;;;;7.45;3.42;;;;;;;1.21;100.00;100761.19;5125675;27;20096;-61
2023/03/12 05:13:18;;;;;;;9.48;3.33;;;;;;;1.21;100.00;100755.16;5126173;27;20055;-61
2023/03/12 05:15:49;;;;;;;10.05;3.55;;;;;;;1.23;100.00;100743.00;5122769;27;20134;-61
2023/03/12 05:18:19;;;;;;;11.10;3.33;;;;;;;1.29;100.00;100735.06;5121855;27;20035;-61
2023/03/12 05:20:58;;;;;;;9.05;3.10;;;;;;;1.43;100.00;100725.19;5125620;27;20085;-61
2023/03/12 05:23:27;;;;;;;9.45;3.15;;;;;;;1.36;100.00;100723.63;5124897;27;20058;-61
2023/03/12 05:25:55;;;;;;;7.20;2.90;;;;;;;1.42;100.00;100713.09;5125000;27;20119;-61
2023/03/12 05:28:26;;;;;;;7.28;3.05;;;;;;;1.44;100.00;100713.91;5124150;27;20031;-61
2023/03/12 05:30:56;;;;;;;6.25;2.63;;;;;;;1.46;100.00;100709.53;5128483;27;20046;-61
2023/03/12 05:33:25;;;;;;;7.60;2.97;;;;;;;1.48;100.00;100712.91;5126905;27;20130;-61
2023/03/12 05:35:53;;;;;;;7.55;2.88;;;;;;;1.42;100.00;100700.16;5126221;27;20497;-61
2023/03/12 05:38:22;;;;;;;6.15;2.47;;;;;;;1.47;100.00;100687.91;5124877;27;20042;-61
2023/03/12 05:40:54;;;;;;;6.32;2.97;;;;;;;1.45;100.00;100692.28;5117896;27;20565;-61
2023/03/12 05:43:23;;;;;;;13.90;3.00;;;;;;;1.42;100.00;100687.19;5122982;27;20036;-62
2023/03/12 05:45:51;;;;;;;10.73;3.10;;;;;;;1.34;100.00;100687.41;5122352;27;20039;-61
2023/03/12 05:48:20;;;;;;;8.48;2.92;;;;;;;1.41;100.00;100690.66;5123741;27;20454;-61
2023/03/12 05:50:49;;;;;;;8.65;3.55;;;;;;;1.40;100.00;100688.13;5124173;27;20051;-61
2023/03/12 05:53:17;;;;;;;10.88;3.60;;;;;;;1.41;100.00;100690.66;5125000;27;20039;-61
2023/03/12 05:55:45;;;;;;;6.68;3.03;;;;;;;1.43;100.00;100683.72;5128772;27;20035;-61
2023/03/12 05:58:13;;;;;;;8.70;3.45;;;;;;;1.41;100.00;100684.66;5120663;27;20492;-61
2023/03/12 06:00:43;;;;;;;8.63;4.25;;;;;;;1.39;100.00;100683.81;5127930;27;20039;-61
2023/03/12 06:03:12;;;;;;;8.02;3.50;;;;;;;1.44;100.00;100680.19;5123289;27;20047;-61
2023/03/12 06:05:43;;;;;;;7.78;3.78;;;;;;;1.54;100.00;100677.34;5124544;27;20360;-61
2023/03/12 06:08:12;;;;;;;15.13;4.13;;;;;;;1.56;100.00;100670.38;5119392;27;20036;-61
2023/03/12 06:10:40;;;;;;;10.63;4.05;;;;;;;1.51;100.00;100671.38;5128645;27;20502;-61
2023/03/12 06:13:10;;;;;;;10.57;4.65;;;;;;;1.52;100.00;100673.03;5121707;27;20046;-61
2023/03/12 06:15:41;;;;;;;10.02;4.60;;;;;;;1.54;100.00;100672.16;5118867;27;20056;-62
2023/03/12 06:18:09;;;;;;;10.38;4.40;;;;;;;1.52;100.00;100673.03;5119212;27;20039;-61
2023/03/12 06:20:41;;;;;;;9.50;4.18;;;;;;;1.62;100.00;100672.75;5124701;27;20035;-61
2023/03/12 06:23:09;;;;;;;10.55;4.50;;;;;;;1.64;100.00;100666.63;5123286;27;20043;-61
2023/03/12 06:25:37;;;;;;;8.32;4.47;;;;;;;1.56;100.00;100665.19;5126788;27;20501;-61
2023/03/12 06:28:05;;;;;;;11.18;5.18;;;;;;;1.54;100.00;100661.78;5117895;27;20841;-61
2023/03/12 06:30:33;;;;;;;10.57;5.45;;;;;;;1.51;100.00;100660.13;5123961;27;20153;-61
2023/03/12 06:33:03;;;;;;;14.50;4.95;;;;;;;1.47;100.00;100662.00;5125271;27;20057;-61
2023/03/12 06:35:31;;;;;;;10.73;4.95;;;;;;;1.49;100.00;100673.13;5126769;27;20383;-61
2023/03/12 06:38:03;;;;;;;11.00;5.50;;;;;;;1.46;100.00;100675.84;5124263;27;20134;-61
2023/03/12 06:40:32;;;;;;;10.15;4.78;;;;;;;1.46;100.00;100687.91;5122826;27;20104;-61
2023/03/12 06:43:00;;;;;;;10.13;4.18;;;;;;;1.44;100.00;100680.19;5125003;27;20039;-60
2023/03/12 06:45:28;;;;;;;8.27;4.13;;;;;;;1.44;100.00;100680.19;5125201;27;20100;-61
2023/03/12 06:47:56;;;;;;;8.63;3.75;;;;;;;1.40;100.00;100681.19;5127496;27;20443;-61
2023/03/12 06:50:24;;;;;;;6.85;4.40;;;;;;;1.35;100.00;100672.72;5126894;28;20132;-61
2023/03/12 06:52:52;;;;;;;9.35;3.92;;;;;;;1.40;100.00;100654.44;5119431;27;20071;-61
2023/03/12 06:55:22;;;;;;;11.00;4.40;;;;;;;1.39;100.00;100661.38;5123541;28;20043;-61
2023/03/12 06:57:50;;;;;;;11.65;4.07;;;;;;;1.37;100.00;100663.13;5124159;27;20043;-61
2023/03/12 07:00:19;;;;;;;10.43;4.00;;;;;;;1.45;100.00;100660.31;5125532;27;20047;-61
2023/03/12 07:02:47;;;;;;;8.73;4.60;;;;;;;1.48;100.00;100668.00;5122217;28;20130;-60
2023/03/12 07:05:15;;;;;;;9.82;4.30;;;;;;;1.50;100.00;100658.41;5123702;28;20494;-60
2023/03/12 07:07:43;;;;;;;7.72;3.92;;;;;;;1.46;100.00;100642.13;5127198;28;20040;-61
2023/03/12 07:10:12;;;;;;;10.07;4.30;;;;;;;1.47;100.00;100646.44;5119522;27;20081;-61
2023/03/12 07:12:41;;;;;;;9.45;4.13;;;;;;;1.51;100.00;100637.66;5124915;28;20043;-61
2023/03/12 07:15:10;;;;;;;14.55;4.72;;;;;;;1.50;100.00;100638.56;5127858;28;20067;-61
2023/03/12 07:17:38;;;;;;;11.70;4.45;;;;;;;1.58;100.00;100640.91;5130131;28;20058;-61
2023/03/12 07:20:08;;;;;;;11.02;4.20;;;;;;;1.61;100.00;100645.13;5118957;28;20039;-61
2023/03/12 07:22:36;;;;;;;10.48;4.30;;;;;;;1.67;100.00;100634.59;5124358;28;20499;-61
2023/03/12 07:25:07;;;;;;;10.88;4.60;;;;;;;1.70;100.00;100624.09;5125190;27;20039;-61
2023/03/12 07:27:35;;;;;;;11.27;5.03;;;;;;;1.69;100.00;100617.22;5123163;28;20094;-61
2023/03/12 07:30:06;;;;;;;8.60;4.03;;;;;;;1.87;100.00;100618.41;5129328;27;20558;-61
2023/03/12 07:32:35;;;;;;;14.23;4.50;;;;;;;1.81;100.00;100616.84;5132490;27;20039;-61
2023/03/12 07:35:03;;;;;;;8.95;4.53;;;;;;;1.78;100.00;100622.13;5124037;27;20031;-61
2023/03/12 07:37:32;;;;;;;10.80;4.03;;;;;;;1.85;100.00;100615.88;5123850;27;20107;-61
2023/03/12 07:40:00;;;;;;;10.48;4.32;;;;;;;1.92;100.00;100607.88;5134039;27;20424;-61
2023/03/12 07:42:28;;;;;;;10.10;4.20;;;;;;;1.99;100.00;100609.34;5129901;27;20493;-61
2023/03/12 07:44:56;;;;;;;10.60;4.80;;;;;;;1.89;100.00;100606.22;5126853;27;20093;-61
2023/03/12 07:47:26;;;;;;;12.80;4.72;;;;;;;1.73;100.00;100608.44;5124913;27;20050;-61
2023/03/12 07:49:54;;;;;;;12.48;4.70;;;;;;;1.76;100.00;100603.19;5123049;27;20043;-61
2023/03/12 07:52:25;;;;;;;9.93;4.97;;;;;;;1.79;100.00;100597.06;5124433;27;20040;-61
2023/03/12 07:54:55;;;;;;;11.13;4.95;;;;;;;1.80;100.00;100589.22;5127590;27;20501;-60
2023/03/12 07:57:23;;;;;;;9.52;4.78;;;;;;;1.85;100.00;100596.84;5125001;27;20047;-61
2023/03/12 07:59:51;;;;;;;11.55;5.10;;;;;;;1.86;100.00;100604.56;5123997;27;20466;-61
2023/03/12 08:02:20;;;;;;;9.88;4.82;;;;;;;1.88;100.00;100601.09;5124396;27;20498;-61
2023/03/12 08:04:50;;;;;;;11.35;4.97;;;;;;;1.86;100.00;100606.31;5119065;27;20437;-61
2023/03/12 08:07:18;;;;;;;11.68;5.30;;;;;;;1.83;100.00;100612.47;5124728;27;20424;-61
2023/03/12 08:09:48;;;;;;;9.02;5.20;;;;;;;1.90;100.00;100612.28;5127907;27;20051;-61
2023/03/12 08:12:16;;;;;;;10.32;5.50;;;;;;;1.88;100.00;100608.88;5122204;27;20143;-61
2023/03/12 08:14:45;;;;;;;13.75;6.47;;;;;;;1.89;100.00;100603.63;5129173;27;20096;-60
2023/03/12 08:17:13;;;;;;;10.10;5.68;;;;;;;1.95;100.00;100618.13;5129246;27;20039;-61
2023/03/12 08:19:41;;;;;;;14.90;6.00;;;;;;;1.92;100.00;100618.25;5120949;27;20111;-60
2023/03/12 08:22:11;;;;;;;12.05;6.18;;;;;;;1.95;100.00;100618.13;5127137;27;20047;-61
2023/03/12 08:24:39;;;;;;;14.07;6.50;;;;;;;1.97;100.00;100617.19;5123635;27;20490;-61
2023/03/12 08:27:07;;;;;;;16.30;7.00;;;;;;;2.01;100.00;100615.34;5129623;27;20069;-61
2023/03/12 08:29:35;;;;;;;13.05;6.55;;;;;;;1.98;100.00;100618.88;5123531;27;20067;-60
2023/03/12 08:32:04;;;;;;;14.27;6.70;;;;;;;2.03;100.00;100611.81;5124206;27;20467;-60
2023/03/12 08:34:33;;;;;;;11.88;6.22;;;;;;;2.05;100.00;100609.16;5124732;27;20126;-60
2023/03/12 08:37:02;;;;;;;16.30;6.85;;;;;;;2.05;100.00;100603.97;5123811;27;20470;-60
2023/03/12 08:39:32;;;;;;;12.70;6.80;;;;;;;2.06;100.00;100603.06;5124471;27;20075;-60
2023/03/12 08:42:01;;;;;;;14.90;7.03;;;;;;;2.10;100.00;100603.81;5119152;27;20101;-60
2023/03/12 08:44:29;;;;;;;16.20;6.95;;;;;;;2.13;100.00;100601.97;5127818;27;20047;-60
2023/03/12 08:46:58;;;;;;;14.10;7.13;;;;;;;2.16;100.00;100604.44;5120958;27;20051;-60
2023/03/12 08:49:26;;;;;;;14.70;7.40;;;;;;;2.19;100.00;100606.94;5125478;27;20115;-60
2023/03/12 08:51:54;;;;;;;13.30;6.57;;;;;;;2.20;100.00;100603.44;5120535;27;20054;-60
2023/03/12 08:54:22;;;;;;;15.98;6.88;;;;;;;2.29;100.00;100604.03;5128134;27;20058;-60
2023/03/12 08:56:52;;;;;;;16.38;6.82;;;;;;;2.27;100.00;100609.28;5127183;27;20055;-60
2023/03/12 08:59:22;;;;;;;17.45;7.28;;;;;;;2.34;100.00;100602.13;5131472;27;20105;-61
2023/03/12 09:01:50;;;;;;;12.98;7.85;;;;;;;2.44;100.00;100607.84;5118372;27;20044;-59
2023/03/12 09:04:18;;;;;;;14.95;7.30;;;;;;;2.51;100.00;100602.38;5119602;27;20111;-59
2023/03/12 09:06:46;;;;;;;13.38;7.35;;;;;;;2.52;100.00;100598.91;5126707;27;20068;-60
2023/03/12 09:09:17;;;;;;;13.20;7.38;;;;;;;2.58;100.00;100602.16;5129463;27;20092;-59
2023/03/12 09:11:46;;;;;;;12.95;7.03;;;;;;;2.62;100.00;100602.00;5126953;27;20039;-59
2023/03/12 09:14:15;;;;;;;17.85;7.85;;;;;;;2.63;100.00;100608.03;5122717;27;20096;-59
2023/03/12 09:17:03;;;;;;;11.70;7.07;;;;;;;2.68;100.00;100600.94;5124410;27;20126;-59
2023/03/12 09:19:31;;;;;;;13.10;7.45;;;;;;;2.70;100.00;100604.34;5128623;27;20070;-59
2023/03/12 09:22:00;;;;;;;12.85;7.70;;;;;;;2.72;100.00;100602.50;5125421;27;20088;-59
2023/03/12 09:24:28;;;;;;;14.70;8.25;;;;;;;2.75;100.00;100607.59;5128068;27;20099;-59
2023/03/12 09:26:56;;;;;;;16.50;8.57;;;;;;;2.82;100.00;100609.09;5126135;27;20057;-59
2023/03/12 09:29:25;;;;;;;14.80;8.43;;;;;;;2.85;100.00;100603.75;5128507;27;20047;-59
2023/03/12 09:31:54;;;;;;;14.05;8.63;;;;;;;2.92;100.00;100604.38;5127459;27;20079;-59
2023/03/12 09:34:22;;;;;;;14.38;8.95;;;;;;;2.95;100.00;100606.03;5130548;27;20051;-59
2023/03/12 09:36:51;;;;;;;14.52;8.73;;;;;;;3.00;100.00;100598.88;5122840;27;20043;-59
2023/03/12 09:39:19;;;;;;;15.88;8.80;;;;;;;3.07;100.00;100605.56;5125154;27;20063;-58
2023/03/12 09:41:48;;;;;;;15.75;9.10;;;;;;;3.12;100.00;100603.66;5119482;27;20074;-59
2023/03/12 09:44:23;;;;;;;15.20;9.07;;;;;;;3.24;100.00;100591.91;5121397;27;20039;-59
2023/03/12 09:46:59;;;;;;;17.55;10.30;;;;;;;3.27;100.00;100601.34;5120797;27;20043;-59
2023/03/12 09:49:34;;;;;;;15.02;9.02;;;;;;;3.29;100.00;100607.34;5126553;27;20039;-59
2023/03/12 09:52:07;;;;;;;16.52;9.25;;;;;;;3.36;100.00;100596.63;5131141;27;20047;-59
2023/03/12 09:54:42;;;;;;;14.52;9.80;;;;;;;3.46;100.00;100597.13;5124359;27;20437;-59
2023/03/12 09:57:19;;;;;;;17.92;10.95;;;;;;;3.57;100.00;100590.66;5133858;27;20047;-59
2023/03/12 09:59:47;;;;;;;15.57;9.88;;;;;;;3.70;100.00;100595.31;5116238;27;20445;-59
2023/03/12 10:02:50;;;;;;;21.75;11.25;;;;;;;3.74;100.00;100603.84;5124116;27;20112;-59
2023/03/12 10:05:23;;;;;;;19.50;10.75;;;;;;;3.79;100.00;100598.44;5119910;27;20452;-59
2023/03/12 10:07:57;;;;;;;19.85;11.32;;;;;;;3.88;100.00;100603.28;5124266;27;20041;-59
2023/03/12 10:10:36;;;;;;;22.25;11.70;;;;;;;3.95;100.00;100611.69;5122182;27;20047;-59
2023/03/12 10:13:16;;;;;;;19.90;12.55;;;;;;;3.99;100.00;100601.06;5130211;27;20051;-59
2023/03/12 10:15:54;;;;;;;20.92;11.90;;;;;;;4.08;100.00;100602.44;5120075;27;20384;-59
2023/03/12 10:18:37;;;;;;;22.10;12.88;;;;;;;4.15;100.00;100596.06;5121794;27;20096;-59
2023/03/12 10:21:17;;;;;;;23.55;13.02;;;;;;;4.22;100.00;100601.88;5124427;27;20050;-59
2023/03/12 10:24:00;;;;;;;23.88;12.70;;;;;;;4.30;100.00;100598.94;5126495;27;20416;-58
2023/03/12 10:26:35;;;;;;;23.10;13.30;;;;;;;4.38;100.00;100596.84;5119952;27;20047;-58
2023/03/12 10:29:11;;;;;;;26.10;14.15;;;;;;;4.45;100.00;100598.28;5122564;27;20052;-58
2023/03/12 10:31:49;;;;;;;26.63;15.05;;;;;;;4.52;100.00;100593.66;5115295;27;20532;-59
2023/03/12 10:34:25;;;;;;;23.80;13.45;;;;;;;4.61;100.00;100590.66;5126015;27;20473;-58
2023/03/12 10:36:59;;;;;;;25.35;15.15;;;;;;;4.65;100.00;100591.34;5126695;27;20108;-59
2023/03/12 10:39:27;;;;;;;27.27;16.10;;;;;;;4.72;100.00;100591.00;5123425;27;20134;-59
2023/03/12 10:41:56;;;;;;;29.45;15.13;;;;;;;4.77;100.00;100582.97;5118480;28;20366;-58
2023/03/12 10:44:25;;;;;;;26.95;15.23;;;;;;;4.85;100.00;100580.03;5120552;28;20134;-60
2023/03/12 10:47:04;;;;;;;29.08;15.32;;;;;;;4.92;100.00;100576.22;5122654;27;20044;-60
2023/03/12 10:49:35;;;;;;;28.13;14.82;;;;;;;5.01;100.00;100574.97;5112743;28;20086;-59
2023/03/12 10:52:07;;;;;;;32.33;16.95;;;;;;;5.11;100.00;100584.03;5129725;28;20093;-59
2023/03/12 10:54:39;;;;;;;30.93;17.27;;;;;;;5.19;100.00;100578.47;5133477;28;20498;-59
2023/03/12 10:57:08;;;;;;;29.83;16.63;;;;;;;5.32;100.00;100583.97;5133451;28;20092;-58
2023/03/12 10:59:38;;;;;;;29.33;16.15;;;;;;;5.41;100.00;100575.69;5132124;28;20051;-59
2023/03/12 11:02:30;;;;;;;30.55;16.92;;;;;;;5.51;100.00;100574.34;5133509;27;20070;-59
2023/03/12 11:05:02;;;;;;;31.95;17.02;;;;;;;5.60;100.00;100573.03;5122546;27;20099;-59
2023/03/12 11:07:31;;;;;;;32.30;16.63;;;;;;;5.69;100.00;100576.97;5138431;27;20047;-58
2023/03/12 11:10:21;;;;;;;31.13;17.10;;;;;;;5.90;100.00;100568.09;5138593;27;20039;-59
2023/03/12 11:13:03;;;;;;;27.95;16.38;;;;;;;5.93;100.00;100578.38;5138271;27;20044;-59
2023/03/12 11:15:39;;;;;;;36.40;18.77;;;;;;;5.98;100.00;100580.78;5138355;27;20085;-59
2023/03/12 11:18:24;;;;;;;31.40;17.95;;;;;;;6.05;100.00;100578.69;5135880;27;20081;-59
2023/03/12 11:20:56;;;;;;;33.78;17.85;;;;;;;6.10;100.00;100579.31;5117032;27;20047;-59
2023/03/12 11:23:28;;;;;;;35.50;16.88;;;;;;;6.14;100.00;100587.84;5132402;27;20486;-59
2023/03/12 11:26:00;;;;;;;33.80;18.48;;;;;;;6.21;100.00;100579.59;5116204;28;20086;-59
2023/03/12 11:28:36;;;;;;;28.10;17.08;;;;;;;6.31;100.00;100568.69;5117311;28;20075;-58
2023/03/12 11:31:09;;;;;;;34.28;17.98;;;;;;;6.47;100.00;100564.34;5117174;28;20126;-58
2023/03/12 11:33:38;;;;;;;30.17;16.90;;;;;;;6.49;100.00;100570.38;5126427;27;20083;-59